Time,TemperatureF,DewpointF,PressureIn,WindDirection,WindDirectionDegrees,WindSpeedMPH,WindSpeedGustMPH,Humidity,HourlyPrecipIn,Conditions,Clouds,dailyrainin,SoftwareType,DateUTC
2013-03-19 00:04:00,50.8,44.1,30.07,East,90,1.1,2.5,78,0.00,,,0.00,WUHU216HW,2013-03-19 07:04:00,
2013-03-19 00:09:00,50.4,43.7,30.07,NNE,23,0.7,2.5,78,0.00,,,0.00,WUHU216HW,2013-03-19 07:09:00,
2013-03-19 00:14:00,50.0,43.4,30.07,East,90,2.5,2.5,78,0.00,,,0.00,WUHU216HW,2013-03-19 07:14:00,
2013-03-19 00:19:00,50.0,43.4,30.06,ESE,113,1.1,2.5,78,0.00,,,0.00,WUHU216HW,2013-03-19 07:19:00,
2013-03-19 00:24:00,49.7,43.4,30.06,NE,45,0.4,1.8,79,0.00,,,0.00,WUHU216HW,2013-03-19 07:24:00,
2013-03-19 00:29:00,49.5,43.2,30.07,North,0,0.0,1.3,79,0.00,,,0.00,WUHU216HW,2013-03-19 07:29:00,
2013-03-19 00:34:00,49.3,42.7,30.06,North,0,0.0,0.7,78,0.00,,,0.00,WUHU216HW,2013-03-19 07:34:00,
2013-03-19 00:39:00,49.1,42.8,30.07,North,0,0.0,0.7,79,0.00,,,0.00,WUHU216HW,2013-03-19 07:39:00,
2013-03-19 00:44:00,49.0,42.7,30.06,NNW,338,0.2,0.4,79,0.00,,,0.00,WUHU216HW,2013-03-19 07:44:00,
2013-03-19 00:49:00,48.8,42.5,30.06,NNW,338,0.0,0.2,79,0.00,,,0.00,WUHU216HW,2013-03-19 07:49:00,
2013-03-19 00:55:00,48.6,42.7,30.06,NE,45,0.9,0.9,80,0.00,,,0.00,WUHU216HW,2013-03-19 07:55:00,
2013-03-19 01:00:00,48.6,42.7,30.06,NE,45,0.9,0.9,80,0.00,,,0.00,WUHU216HW,2013-03-19 08:00:00,
2013-03-19 01:05:00,48.4,42.5,30.06,NE,45,0.2,1.1,80,0.00,,,0.00,WUHU216HW,2013-03-19 08:05:00,
2013-03-19 01:10:00,48.2,42.3,30.06,NE,45,0.4,0.4,80,0.00,,,0.00,WUHU216HW,2013-03-19 08:10:00,
2013-03-19 01:15:00,47.9,41.9,30.06,North,0,0.2,0.4,80,0.00,,,0.00,WUHU216HW,2013-03-19 08:15:00,
2013-03-19 01:20:00,47.9,41.9,30.06,NNE,23,0.0,0.4,80,0.00,,,0.00,WUHU216HW,2013-03-19 08:20:00,
2013-03-19 01:25:00,47.7,41.9,30.06,NNE,23,0.0,0.4,80,0.00,,,0.00,WUHU216HW,2013-03-19 08:25:00,
2013-03-19 01:30:00,47.5,41.7,30.06,NE,45,0.2,0.4,80,0.00,,,0.00,WUHU216HW,2013-03-19 08:30:00,
2013-03-19 01:35:00,47.3,41.8,30.06,ENE,68,0.0,0.2,81,0.00,,,0.00,WUHU216HW,2013-03-19 08:35:00,
2013-03-19 01:40:00,47.3,41.8,30.06,ENE,68,0.0,0.4,81,0.00,,,0.00,WUHU216HW,2013-03-19 08:40:00,
2013-03-19 01:45:00,47.2,41.7,30.06,East,90,0.4,0.4,81,0.00,,,0.00,WUHU216HW,2013-03-19 08:45:00,
2013-03-19 01:50:00,47.2,41.7,30.06,East,90,0.4,0.4,81,0.00,,,0.00,WUHU216HW,2013-03-19 08:50:00,
2013-03-19 01:55:00,47.2,41.7,30.06,ENE,68,0.2,0.7,81,0.00,,,0.00,WUHU216HW,2013-03-19 08:55:00,
2013-03-19 02:00:00,47.2,41.9,30.06,NE,45,0.2,0.7,82,0.00,,,0.00,WUHU216HW,2013-03-19 09:00:00,
2013-03-19 02:05:00,47.2,41.7,30.05,NNE,23,0.0,0.7,81,0.00,,,0.00,WUHU216HW,2013-03-19 09:05:00,
2013-03-19 02:10:00,47.2,41.9,30.05,NNE,23,0.0,0.4,82,0.00,,,0.00,WUHU216HW,2013-03-19 09:10:00,
2013-03-19 02:15:00,47.3,42.5,30.05,North,0,0.2,0.4,83,0.00,,,0.00,WUHU216HW,2013-03-19 09:15:00,
2013-03-19 02:20:00,47.3,42.5,30.05,North,0,0.0,0.2,83,0.00,,,0.00,WUHU216HW,2013-03-19 09:20:00,
2013-03-19 02:26:00,47.5,42.3,30.05,North,0,0.0,0.0,82,0.00,,,0.00,WUHU216HW,2013-03-19 09:26:00,
2013-03-19 02:31:00,47.5,42.6,30.05,North,0,0.0,0.0,83,0.00,,,0.00,WUHU216HW,2013-03-19 09:31:00,
2013-03-19 02:36:00,47.7,42.8,30.05,North,0,0.0,0.0,83,0.00,,,0.00,WUHU216HW,2013-03-19 09:36:00,
2013-03-19 02:41:00,47.7,42.8,30.05,North,0,0.0,0.0,83,0.00,,,0.00,WUHU216HW,2013-03-19 09:41:00,
2013-03-19 02:46:00,47.9,42.7,30.05,North,0,0.0,0.0,82,0.00,,,0.00,WUHU216HW,2013-03-19 09:46:00,
2013-03-19 02:51:00,47.9,42.9,30.05,SSW,203,0.4,0.4,83,0.00,,,0.00,WUHU216HW,2013-03-19 09:51:00,
2013-03-19 02:56:00,48.1,43.1,30.04,SSW,203,0.4,0.4,83,0.00,,,0.00,WUHU216HW,2013-03-19 09:56:00,
2013-03-19 03:01:00,48.1,43.1,30.05,SSW,203,0.4,0.4,83,0.00,,,0.00,WUHU216HW,2013-03-19 10:01:00,
2013-03-19 03:06:00,48.2,43.3,30.05,SE,135,0.4,0.7,83,0.00,,,0.00,WUHU216HW,2013-03-19 10:06:00,
2013-03-19 03:12:00,48.1,43.1,30.04,SE,135,0.0,0.7,83,0.00,,,0.00,WUHU216HW,2013-03-19 10:12:00,
2013-03-19 03:17:00,48.2,43.3,30.04,NNE,23,0.0,0.4,83,0.00,,,0.00,WUHU216HW,2013-03-19 10:17:00,
2013-03-19 03:22:00,48.1,43.1,30.04,NE,45,0.2,0.4,83,0.00,,,0.00,WUHU216HW,2013-03-19 10:22:00,
2013-03-19 03:27:00,48.2,43.3,30.04,ENE,68,0.0,0.4,83,0.00,,,0.00,WUHU216HW,2013-03-19 10:27:00,
2013-03-19 03:32:00,48.2,42.9,30.04,ENE,68,0.0,0.4,82,0.00,,,0.00,WUHU216HW,2013-03-19 10:32:00,
2013-03-19 03:37:00,48.2,42.9,30.04,ENE,68,0.0,0.0,82,0.00,,,0.00,WUHU216HW,2013-03-19 10:37:00,
2013-03-19 03:43:00,48.1,42.8,30.04,ENE,68,0.0,0.0,82,0.00,,,0.00,WUHU216HW,2013-03-19 10:43:00,
2013-03-19 03:48:00,48.1,42.8,30.04,ENE,68,0.0,0.0,82,0.00,,,0.00,WUHU216HW,2013-03-19 10:48:00,
2013-03-19 03:53:00,48.1,42.8,30.03,ENE,68,0.4,0.4,82,0.00,,,0.00,WUHU216HW,2013-03-19 10:53:00,
2013-03-19 03:58:00,48.1,42.8,30.03,ENE,68,0.2,0.4,82,0.00,,,0.00,WUHU216HW,2013-03-19 10:58:00,
2013-03-19 04:03:00,48.1,43.1,30.03,East,90,0.0,0.2,83,0.00,,,0.00,WUHU216HW,2013-03-19 11:03:00,
2013-03-19 04:08:00,48.1,43.1,30.03,East,90,0.0,0.2,83,0.00,,,0.00,WUHU216HW,2013-03-19 11:08:00,
2013-03-19 04:13:00,48.1,43.1,30.03,East,90,0.0,0.4,83,0.00,,,0.00,WUHU216HW,2013-03-19 11:13:00,
2013-03-19 04:18:00,48.1,43.1,30.03,ENE,68,0.0,0.4,83,0.00,,,0.00,WUHU216HW,2013-03-19 11:18:00,
2013-03-19 04:23:00,48.1,43.1,30.03,SSW,203,0.4,0.4,83,0.00,,,0.00,WUHU216HW,2013-03-19 11:23:00,
2013-03-19 04:28:00,48.1,43.1,30.03,SSE,158,0.0,0.4,83,0.00,,,0.00,WUHU216HW,2013-03-19 11:28:00,
2013-03-19 04:33:00,48.1,43.1,30.03,SSE,158,0.2,0.2,83,0.00,,,0.00,WUHU216HW,2013-03-19 11:33:00,
2013-03-19 04:38:00,47.9,42.9,30.03,SSE,158,0.0,0.2,83,0.00,,,0.00,WUHU216HW,2013-03-19 11:38:00,
2013-03-19 04:44:00,47.9,42.7,30.03,East,90,0.0,0.2,82,0.00,,,0.00,WUHU216HW,2013-03-19 11:44:00,
2013-03-19 04:49:00,47.7,42.5,30.02,East,90,0.0,0.2,82,0.00,,,0.00,WUHU216HW,2013-03-19 11:49:00,
2013-03-19 04:54:00,47.5,42.3,30.02,East,90,0.4,0.4,82,0.00,,,0.00,WUHU216HW,2013-03-19 11:54:00,
2013-03-19 04:59:00,47.5,42.6,30.02,East,90,0.0,0.4,83,0.00,,,0.00,WUHU216HW,2013-03-19 11:59:00,
2013-03-19 05:04:00,47.3,42.5,30.02,East,90,0.0,0.2,83,0.00,,,0.00,WUHU216HW,2013-03-19 12:04:00,
2013-03-19 05:09:00,47.2,42.3,30.02,East,90,0.0,0.0,83,0.00,,,0.00,WUHU216HW,2013-03-19 12:09:00,
2013-03-19 05:14:00,47.0,42.1,30.02,East,90,0.0,0.0,83,0.00,,,0.00,WUHU216HW,2013-03-19 12:14:00,
2013-03-19 05:19:00,46.8,42.0,30.02,East,90,0.0,0.4,83,0.00,,,0.00,WUHU216HW,2013-03-19 12:19:00,
2013-03-19 05:24:00,46.6,41.8,30.02,East,90,0.0,0.4,83,0.00,,,0.00,WUHU216HW,2013-03-19 12:24:00,
2013-03-19 05:29:00,46.4,41.6,30.02,ENE,68,0.0,0.2,83,0.00,,,0.00,WUHU216HW,2013-03-19 12:29:00,
2013-03-19 05:34:00,46.3,41.4,30.02,ENE,68,0.0,0.0,83,0.00,,,0.00,WUHU216HW,2013-03-19 12:34:00,
2013-03-19 05:39:00,46.1,41.2,30.02,ENE,68,0.0,0.0,83,0.00,,,0.00,WUHU216HW,2013-03-19 12:39:00,
2013-03-19 05:44:00,46.1,41.2,30.02,ENE,68,0.4,0.4,83,0.00,,,0.00,WUHU216HW,2013-03-19 12:44:00,
2013-03-19 05:49:00,45.9,41.0,30.03,ENE,68,0.4,0.4,83,0.00,,,0.00,WUHU216HW,2013-03-19 12:49:00,
2013-03-19 05:54:00,45.7,41.2,30.03,East,90,0.4,0.4,84,0.00,,,0.00,WUHU216HW,2013-03-19 12:54:00,
2013-03-19 06:00:00,45.7,41.2,30.03,ENE,68,0.0,0.4,84,0.00,,,0.00,WUHU216HW,2013-03-19 13:00:00,
2013-03-19 06:05:00,45.5,41.1,30.03,ENE,68,0.0,0.4,84,0.00,,,0.00,WUHU216HW,2013-03-19 13:05:00,
2013-03-19 06:10:00,45.4,40.9,30.03,ENE,68,0.0,0.4,84,0.00,,,0.00,WUHU216HW,2013-03-19 13:10:00,
2013-03-19 06:15:00,45.2,40.7,30.03,East,90,0.4,0.4,84,0.00,,,0.00,WUHU216HW,2013-03-19 13:15:00,
2013-03-19 06:20:00,45.0,40.5,30.03,East,90,0.0,0.4,84,0.00,,,0.00,WUHU216HW,2013-03-19 13:20:00,
2013-03-19 06:25:00,45.0,40.8,30.03,East,90,0.0,0.2,85,0.00,,,0.00,WUHU216HW,2013-03-19 13:25:00,
2013-03-19 06:30:00,44.8,40.6,30.03,East,90,0.0,0.2,85,0.00,,,0.00,WUHU216HW,2013-03-19 13:30:00,
2013-03-19 06:35:00,44.6,40.4,30.04,East,90,0.0,0.2,85,0.00,,,0.00,WUHU216HW,2013-03-19 13:35:00,
2013-03-19 06:40:00,44.5,40.2,30.03,East,90,0.0,0.0,85,0.00,,,0.00,WUHU216HW,2013-03-19 13:40:00,
2013-03-19 06:45:00,44.3,40.1,30.03,East,90,0.0,0.0,85,0.00,,,0.00,WUHU216HW,2013-03-19 13:45:00,
2013-03-19 06:50:00,44.3,40.1,30.03,East,90,0.0,0.2,85,0.00,,,0.00,WUHU216HW,2013-03-19 13:50:00,
2013-03-19 06:55:00,44.3,40.1,30.04,East,90,0.0,0.2,85,0.00,,,0.00,WUHU216HW,2013-03-19 13:55:00,
2013-03-19 07:00:00,44.1,39.9,30.03,East,90,0.4,0.4,85,0.00,,,0.00,WUHU216HW,2013-03-19 14:00:00,
2013-03-19 07:06:00,43.9,39.7,30.05,East,90,0.0,0.7,85,0.00,,,0.00,WUHU216HW,2013-03-19 14:06:00,
2013-03-19 07:11:00,43.9,39.7,30.05,East,90,0.0,0.7,85,0.00,,,0.00,WUHU216HW,2013-03-19 14:11:00,
2013-03-19 07:16:00,43.9,39.7,30.06,East,90,0.2,0.4,85,0.00,,,0.00,WUHU216HW,2013-03-19 14:16:00,
2013-03-19 07:21:00,43.7,39.5,30.06,East,90,0.0,0.2,85,0.00,,,0.00,WUHU216HW,2013-03-19 14:21:00,
2013-03-19 07:26:00,43.7,39.5,30.06,East,90,0.0,0.2,85,0.00,,,0.00,WUHU216HW,2013-03-19 14:26:00,
2013-03-19 07:32:00,43.7,39.8,30.06,East,90,0.2,0.2,86,0.00,,,0.00,WUHU216HW,2013-03-19 14:32:00,
2013-03-19 07:37:00,43.7,39.5,30.06,East,90,0.0,0.2,85,0.00,,,0.00,WUHU216HW,2013-03-19 14:37:00,
2013-03-19 07:42:00,43.7,39.8,30.06,East,90,0.0,0.2,86,0.00,,,0.00,WUHU216HW,2013-03-19 14:42:00,
2013-03-19 07:47:00,43.9,40.0,30.06,East,90,0.0,0.2,86,0.00,,,0.00,WUHU216HW,2013-03-19 14:47:00,
2013-03-19 07:52:00,44.1,40.1,30.06,East,90,0.0,0.0,86,0.00,,,0.00,WUHU216HW,2013-03-19 14:52:00,
2013-03-19 07:57:00,44.3,40.7,30.07,ESE,113,0.0,0.0,87,0.00,,,0.00,WUHU216HW,2013-03-19 14:57:00,
2013-03-19 08:02:00,44.5,40.9,30.07,ESE,113,0.0,0.0,87,0.00,,,0.00,WUHU216HW,2013-03-19 15:02:00,
2013-03-19 08:07:00,44.8,41.2,30.07,ESE,113,0.0,0.0,87,0.00,,,0.00,WUHU216HW,2013-03-19 15:07:00,
2013-03-19 08:12:00,45.0,41.4,30.07,ESE,113,0.0,0.0,87,0.00,,,0.00,WUHU216HW,2013-03-19 15:12:00,
2013-03-19 08:17:00,45.4,41.8,30.07,East,90,0.0,0.0,87,0.00,,,0.00,WUHU216HW,2013-03-19 15:17:00,
2013-03-19 08:22:00,45.9,42.3,30.07,East,90,0.0,0.0,87,0.00,,,0.00,WUHU216HW,2013-03-19 15:22:00,
2013-03-19 08:28:00,46.4,43.1,30.08,East,90,0.0,0.0,88,0.00,,,0.00,WUHU216HW,2013-03-19 15:28:00,
2013-03-19 08:33:00,46.8,43.2,30.08,East,90,0.9,0.9,87,0.00,,,0.00,WUHU216HW,2013-03-19 15:33:00,
2013-03-19 08:38:00,47.5,43.8,30.08,ESE,113,1.1,1.3,87,0.00,,,0.00,WUHU216HW,2013-03-19 15:38:00,
2013-03-19 08:43:00,47.9,43.9,30.08,ESE,113,0.7,1.3,86,0.00,,,0.00,WUHU216HW,2013-03-19 15:43:00,
2013-03-19 08:48:00,48.4,44.1,30.08,ESE,113,0.0,1.1,85,0.00,,,0.00,WUHU216HW,2013-03-19 15:48:00,
2013-03-19 08:53:00,49.3,44.9,30.08,South,180,0.4,0.4,85,0.00,,,0.00,WUHU216HW,2013-03-19 15:53:00,
2013-03-19 08:58:00,50.0,45.6,30.08,South,180,0.0,0.9,85,0.00,,,0.00,WUHU216HW,2013-03-19 15:58:00,
2013-03-19 09:03:00,51.1,46.1,30.08,SSE,158,0.9,1.1,83,0.00,,,0.00,WUHU216HW,2013-03-19 16:03:00,
2013-03-19 09:08:00,51.7,46.4,30.08,South,180,2.0,2.0,82,0.00,,,0.00,WUHU216HW,2013-03-19 16:08:00,
2013-03-19 09:13:00,52.4,46.4,30.07,SSW,203,1.1,2.0,80,0.00,,,0.00,WUHU216HW,2013-03-19 16:13:00,
2013-03-19 09:18:00,52.9,46.6,30.07,SE,135,1.3,1.8,79,0.00,,,0.00,WUHU216HW,2013-03-19 16:18:00,
2013-03-19 09:23:00,53.6,46.6,30.07,South,180,0.7,1.8,77,0.00,,,0.00,WUHU216HW,2013-03-19 16:23:00,
2013-03-19 09:28:00,54.4,46.6,30.07,SSW,203,2.9,2.9,75,0.00,,,0.00,WUHU216HW,2013-03-19 16:28:00,
2013-03-19 09:33:00,54.7,46.9,30.07,SSE,158,0.7,2.9,75,0.00,,,0.00,WUHU216HW,2013-03-19 16:33:00,
2013-03-19 09:38:00,55.1,46.9,30.07,ESE,113,1.1,2.5,74,0.00,,,0.00,WUHU216HW,2013-03-19 16:38:00,
2013-03-19 09:43:00,55.6,47.1,30.07,SE,135,1.8,1.8,73,0.00,,,0.00,WUHU216HW,2013-03-19 16:43:00,
2013-03-19 09:48:00,56.5,47.3,30.07,South,180,1.3,2.0,71,0.00,,,0.00,WUHU216HW,2013-03-19 16:48:00,
2013-03-19 09:53:00,57.2,47.2,30.07,SSW,203,2.0,2.9,69,0.00,,,0.00,WUHU216HW,2013-03-19 16:53:00,
2013-03-19 09:58:00,57.6,46.7,30.07,South,180,2.5,2.9,67,0.00,,,0.00,WUHU216HW,2013-03-19 16:58:00,
2013-03-19 10:03:00,57.6,45.9,30.07,SSW,203,1.3,2.5,65,0.00,,,0.00,WUHU216HW,2013-03-19 17:03:00,
2013-03-19 10:08:00,58.5,47.2,30.07,SSE,158,1.6,2.5,66,0.00,,,0.00,WUHU216HW,2013-03-19 17:08:00,
2013-03-19 10:13:00,59.8,46.7,30.07,SE,135,1.3,2.5,62,0.00,,,0.00,WUHU216HW,2013-03-19 17:13:00,
2013-03-19 10:18:00,60.8,46.5,30.07,SSW,203,1.3,2.5,59,0.00,,,0.00,WUHU216HW,2013-03-19 17:18:00,
2013-03-19 10:24:00,61.0,46.6,30.07,East,90,0.2,2.0,59,0.00,,,0.00,WUHU216HW,2013-03-19 17:24:00,
2013-03-19 10:29:00,61.2,45.8,30.07,SSE,158,0.4,2.0,57,0.00,,,0.00,WUHU216HW,2013-03-19 17:29:00,
2013-03-19 10:34:00,61.4,46.5,30.07,SSW,203,1.1,1.1,58,0.00,,,0.00,WUHU216HW,2013-03-19 17:34:00,
2013-03-19 10:39:00,61.4,46.0,30.07,ESE,113,0.7,1.1,57,0.00,,,0.00,WUHU216HW,2013-03-19 17:39:00,
2013-03-19 10:44:00,61.6,45.7,30.07,NNE,23,0.9,1.8,56,0.00,,,0.00,WUHU216HW,2013-03-19 17:44:00,
2013-03-19 10:49:00,61.9,45.6,30.07,NE,45,0.9,1.8,55,0.00,,,0.00,WUHU216HW,2013-03-19 17:49:00,
2013-03-19 10:54:00,62.3,46.4,30.08,NE,45,0.2,1.8,56,0.00,,,0.00,WUHU216HW,2013-03-19 17:54:00,
2013-03-19 10:59:00,63.0,45.6,30.07,WNW,293,3.1,4.7,53,0.00,,,0.00,WUHU216HW,2013-03-19 17:59:00,
2013-03-19 11:04:00,63.5,45.6,30.07,NW,315,5.4,5.4,52,0.00,,,0.00,WUHU216HW,2013-03-19 18:04:00,
2013-03-19 11:09:00,64.1,44.5,30.07,NW,315,3.8,5.4,49,0.00,,,0.00,WUHU216HW,2013-03-19 18:09:00,
2013-03-19 11:14:00,64.8,43.4,30.07,NW,315,2.5,3.8,46,0.00,,,0.00,WUHU216HW,2013-03-19 18:14:00,
2013-03-19 11:19:00,65.3,44.5,30.07,NW,315,4.0,5.4,47,0.00,,,0.00,WUHU216HW,2013-03-19 18:19:00,
2013-03-19 11:24:00,65.7,44.3,30.07,WNW,293,2.5,5.4,46,0.00,,,0.00,WUHU216HW,2013-03-19 18:24:00,
2013-03-19 11:29:00,65.9,43.3,30.06,WSW,248,3.4,4.0,44,0.00,,,0.00,WUHU216HW,2013-03-19 18:29:00,
2013-03-19 11:34:00,66.1,42.9,30.07,WSW,248,1.8,4.0,43,0.00,,,0.00,WUHU216HW,2013-03-19 18:34:00,
2013-03-19 11:39:00,66.2,43.0,30.07,SSW,203,1.8,3.1,43,0.00,,,0.00,WUHU216HW,2013-03-19 18:39:00,
2013-03-19 11:44:00,66.6,42.8,30.06,SW,225,3.1,3.4,42,0.00,,,0.00,WUHU216HW,2013-03-19 18:44:00,
2013-03-19 11:49:00,67.0,42.5,30.06,SSW,203,2.7,3.4,41,0.00,,,0.00,WUHU216HW,2013-03-19 18:49:00,
2013-03-19 11:54:00,67.1,42.0,30.06,SE,135,0.7,3.4,40,0.00,,,0.00,WUHU216HW,2013-03-19 18:54:00,
2013-03-19 11:59:00,67.5,42.9,30.06,East,90,0.9,1.6,41,0.00,,,0.00,WUHU216HW,2013-03-19 18:59:00,
2013-03-19 12:04:00,68.0,44.0,30.06,SSW,203,3.4,3.4,42,0.00,,,0.00,WUHU216HW,2013-03-19 19:04:00,
2013-03-19 12:09:00,68.2,44.8,30.06,ESE,113,1.1,3.4,43,0.00,,,0.00,WUHU216HW,2013-03-19 19:09:00,
2013-03-19 12:15:00,68.6,45.1,30.06,ENE,68,0.0,3.4,43,0.00,,,0.00,WUHU216HW,2013-03-19 19:15:00,
2013-03-19 12:20:00,68.9,45.5,30.06,SE,135,1.3,2.5,43,0.00,,,0.00,WUHU216HW,2013-03-19 19:20:00,
2013-03-19 12:25:00,69.3,46.4,30.06,North,0,0.4,2.7,44,0.00,,,0.00,WUHU216HW,2013-03-19 19:25:00,
2013-03-19 12:30:00,69.7,45.5,30.06,North,0,1.1,2.7,42,0.00,,,0.00,WUHU216HW,2013-03-19 19:30:00,
2013-03-19 12:35:00,70.4,47.4,30.06,WNW,293,0.9,1.8,44,0.00,,,0.00,WUHU216HW,2013-03-19 19:35:00,
2013-03-19 12:40:00,70.7,45.3,30.06,NE,45,2.2,2.5,40,0.00,,,0.00,WUHU216HW,2013-03-19 19:40:00,
2013-03-19 12:45:00,70.7,45.9,30.06,SW,225,0.4,2.5,41,0.00,,,0.00,WUHU216HW,2013-03-19 19:45:00,
2013-03-19 12:50:00,71.1,46.8,30.05,WNW,293,2.5,2.7,42,0.00,,,0.00,WUHU216HW,2013-03-19 19:50:00,
2013-03-19 12:55:00,71.6,47.3,30.05,NNW,338,3.4,5.1,42,0.00,,,0.00,WUHU216HW,2013-03-19 19:55:00,
2013-03-19 13:00:00,71.8,46.3,30.05,WNW,293,2.9,5.1,40,0.00,,,0.00,WUHU216HW,2013-03-19 20:00:00,
2013-03-19 13:05:00,72.0,46.5,30.05,West,270,3.4,4.0,40,0.00,,,0.00,WUHU216HW,2013-03-19 20:05:00,
2013-03-19 13:10:00,72.0,47.0,30.05,NNW,338,1.8,4.5,41,0.00,,,0.00,WUHU216HW,2013-03-19 20:10:00,
2013-03-19 13:15:00,72.5,46.9,30.05,NW,315,3.4,4.5,40,0.00,,,0.00,WUHU216HW,2013-03-19 20:15:00,
2013-03-19 13:20:00,72.9,47.3,30.05,West,270,3.4,4.0,40,0.00,,,0.00,WUHU216HW,2013-03-19 20:20:00,
2013-03-19 13:26:00,73.3,47.5,30.05,NNW,338,1.8,5.8,40,0.00,,,0.00,WUHU216HW,2013-03-19 20:26:00,
2013-03-19 13:31:00,73.4,47.7,30.04,North,0,4.0,6.5,40,0.00,,,0.00,WUHU216HW,2013-03-19 20:31:00,
2013-03-19 13:36:00,73.3,46.0,30.04,West,270,6.3,6.5,38,0.00,,,0.00,WUHU216HW,2013-03-19 20:36:00,
2013-03-19 13:41:00,73.4,47.7,30.04,NW,315,2.9,6.3,40,0.00,,,0.00,WUHU216HW,2013-03-19 20:41:00,
2013-03-19 13:47:00,73.6,47.1,30.04,WSW,248,3.1,5.1,39,0.00,,,0.00,WUHU216HW,2013-03-19 20:47:00,
2013-03-19 13:52:00,73.8,47.3,30.04,WNW,293,4.7,6.3,39,0.00,,,0.00,WUHU216HW,2013-03-19 20:52:00,
2013-03-19 13:57:00,74.0,47.4,30.04,SW,225,3.4,6.3,39,0.00,,,0.00,WUHU216HW,2013-03-19 20:57:00,
2013-03-19 14:02:00,74.2,47.6,30.03,NW,315,4.7,5.1,39,0.00,,,0.00,WUHU216HW,2013-03-19 21:02:00,
2013-03-19 14:07:00,74.2,47.6,30.03,WSW,248,6.3,6.3,39,0.00,,,0.00,WUHU216HW,2013-03-19 21:07:00,
2013-03-19 14:12:00,74.0,47.4,30.03,West,270,4.7,8.5,39,0.00,,,0.00,WUHU216HW,2013-03-19 21:12:00,
2013-03-19 14:17:00,73.8,46.5,30.03,WNW,293,3.1,8.5,38,0.00,,,0.00,WUHU216HW,2013-03-19 21:17:00,
2013-03-19 14:22:00,73.3,46.0,30.04,West,270,5.6,10.5,38,0.00,,,0.00,WUHU216HW,2013-03-19 21:22:00,
2013-03-19 14:27:00,72.7,47.1,30.03,SW,225,4.9,10.5,40,0.00,,,0.00,WUHU216HW,2013-03-19 21:27:00,
2013-03-19 14:32:00,72.7,45.5,30.04,SW,225,4.0,7.8,38,0.00,,,0.00,WUHU216HW,2013-03-19 21:32:00,
2013-03-19 14:37:00,72.5,46.2,30.04,SSW,203,7.6,12.1,39,0.00,,,0.00,WUHU216HW,2013-03-19 21:37:00,
2013-03-19 14:42:00,72.0,45.6,30.04,WSW,248,8.9,12.1,39,0.00,,,0.00,WUHU216HW,2013-03-19 21:42:00,
2013-03-19 14:47:00,71.3,45.0,30.04,NW,315,5.4,9.4,39,0.00,,,0.00,WUHU216HW,2013-03-19 21:47:00,
2013-03-19 14:53:00,71.1,46.2,30.05,NW,315,3.8,9.4,41,0.00,,,0.00,WUHU216HW,2013-03-19 21:53:00,
2013-03-19 14:58:00,70.6,46.9,30.05,WSW,248,5.8,8.7,43,0.00,,,0.00,WUHU216HW,2013-03-19 21:58:00,
2013-03-19 15:03:00,70.2,46.5,30.04,WSW,248,7.6,7.6,43,0.00,,,0.00,WUHU216HW,2013-03-19 22:03:00,
2013-03-19 15:08:00,69.8,46.8,30.04,SSW,203,1.8,7.6,44,0.00,,,0.00,WUHU216HW,2013-03-19 22:08:00,
2013-03-19 15:13:00,70.0,47.0,30.04,NNW,338,0.4,4.3,44,0.00,,,0.00,WUHU216HW,2013-03-19 22:13:00,
2013-03-19 15:18:00,69.8,46.3,30.04,NW,315,2.9,5.4,43,0.00,,,0.00,WUHU216HW,2013-03-19 22:18:00,
2013-03-19 15:23:00,69.3,45.2,30.04,NW,315,2.5,7.6,42,0.00,,,0.00,WUHU216HW,2013-03-19 22:23:00,
2013-03-19 15:28:00,68.8,45.3,30.04,NE,45,1.1,7.6,43,0.00,,,0.00,WUHU216HW,2013-03-19 22:28:00,
2013-03-19 15:33:00,68.2,44.2,30.04,West,270,1.8,4.9,42,0.00,,,0.00,WUHU216HW,2013-03-19 22:33:00,
2013-03-19 15:38:00,67.9,43.8,30.04,NE,45,0.7,4.0,42,0.00,,,0.00,WUHU216HW,2013-03-19 22:38:00,
2013-03-19 15:44:00,67.7,44.3,30.04,NNE,23,0.4,2.0,43,0.00,,,0.00,WUHU216HW,2013-03-19 22:44:00,
2013-03-19 15:49:00,67.7,44.3,30.04,NNE,23,3.1,3.4,43,0.00,,,0.00,WUHU216HW,2013-03-19 22:49:00,
2013-03-19 15:54:00,67.5,44.7,30.04,North,0,2.9,3.4,44,0.00,,,0.00,WUHU216HW,2013-03-19 22:54:00,
2013-03-19 15:59:00,67.5,44.7,30.04,West,270,4.0,6.7,44,0.00,,,0.00,WUHU216HW,2013-03-19 22:59:00,
2013-03-19 16:04:00,67.3,44.6,30.04,NW,315,1.3,6.7,44,0.00,,,0.00,WUHU216HW,2013-03-19 23:04:00,
2013-03-19 16:09:00,67.3,44.6,30.04,North,0,1.8,5.4,44,0.00,,,0.00,WUHU216HW,2013-03-19 23:09:00,
2013-03-19 16:14:00,67.0,44.3,30.04,SW,225,2.9,6.9,44,0.00,,,0.00,WUHU216HW,2013-03-19 23:14:00,
2013-03-19 16:19:00,66.6,45.1,30.05,ENE,68,1.1,6.9,46,0.00,,,0.00,WUHU216HW,2013-03-19 23:19:00,
2013-03-19 16:24:00,66.4,44.4,30.05,WNW,293,1.3,4.7,45,0.00,,,0.00,WUHU216HW,2013-03-19 23:24:00,
2013-03-19 16:29:00,66.2,44.8,30.05,West,270,4.7,8.1,46,0.00,,,0.00,WUHU216HW,2013-03-19 23:29:00,
2013-03-19 16:34:00,65.7,44.8,30.05,WSW,248,4.5,8.1,47,0.00,,,0.00,WUHU216HW,2013-03-19 23:34:00,
2013-03-19 16:39:00,65.3,44.5,30.05,West,270,9.6,9.6,47,0.00,,,0.00,WUHU216HW,2013-03-19 23:39:00,
2013-03-19 16:44:00,64.8,44.6,30.05,WSW,248,2.9,9.6,48,0.00,,,0.00,WUHU216HW,2013-03-19 23:44:00,
2013-03-19 16:49:00,64.4,44.2,30.06,WSW,248,7.6,7.6,48,0.00,,,0.00,WUHU216HW,2013-03-19 23:49:00,
2013-03-19 16:54:00,64.3,44.7,30.06,SW,225,11.4,11.4,49,0.00,,,0.00,WUHU216HW,2013-03-19 23:54:00,
2013-03-19 16:59:00,63.7,44.7,30.06,SW,225,6.3,11.4,50,0.00,,,0.00,WUHU216HW,2013-03-19 23:59:00,
2013-03-19 17:04:00,63.5,45.6,30.05,West,270,4.7,10.5,52,0.00,,,0.00,WUHU216HW,2013-03-20 00:04:00,
2013-03-19 17:09:00,63.4,45.4,30.05,West,270,5.6,10.5,52,0.00,,,0.00,WUHU216HW,2013-03-20 00:09:00,
2013-03-19 17:14:00,63.4,45.4,30.06,WNW,293,3.6,7.8,52,0.00,,,0.00,WUHU216HW,2013-03-20 00:14:00,
2013-03-19 17:19:00,63.0,45.0,30.06,WNW,293,2.0,6.0,52,0.00,,,0.00,WUHU216HW,2013-03-20 00:19:00,
2013-03-19 17:24:00,63.0,44.1,30.07,SW,225,8.7,12.3,50,0.00,,,0.00,WUHU216HW,2013-03-20 00:24:00,
2013-03-19 17:29:00,62.6,42.0,30.07,WSW,248,8.1,12.3,47,0.00,,,0.00,WUHU216HW,2013-03-20 00:29:00,
2013-03-19 17:34:00,62.3,40.5,30.07,West,270,11.0,11.0,45,0.00,,,0.00,WUHU216HW,2013-03-20 00:34:00,
2013-03-19 17:39:00,62.1,41.5,30.08,NNW,338,9.8,11.0,47,0.00,,,0.00,WUHU216HW,2013-03-20 00:39:00,
2013-03-19 17:44:00,61.7,41.8,30.08,WNW,293,8.3,11.9,48,0.00,,,0.00,WUHU216HW,2013-03-20 00:44:00,
2013-03-19 17:49:00,61.4,42.0,30.08,SW,225,4.7,11.9,49,0.00,,,0.00,WUHU216HW,2013-03-20 00:49:00,
2013-03-19 17:54:00,60.8,41.0,30.08,West,270,9.8,11.4,48,0.00,,,0.00,WUHU216HW,2013-03-20 00:54:00,
2013-03-19 17:59:00,60.7,40.2,30.08,SW,225,9.6,11.4,47,0.00,,,0.00,WUHU216HW,2013-03-20 00:59:00,
2013-03-19 18:04:00,60.5,41.8,30.08,West,270,4.7,11.0,50,0.00,,,0.00,WUHU216HW,2013-03-20 01:04:00,
2013-03-19 18:09:00,60.1,42.4,30.07,WSW,248,3.4,9.6,52,0.00,,,0.00,WUHU216HW,2013-03-20 01:09:00,
2013-03-19 18:15:00,59.8,42.1,30.07,WSW,248,8.3,8.3,52,0.00,,,0.00,WUHU216HW,2013-03-20 01:15:00,
2013-03-19 18:20:00,59.4,41.8,30.07,WSW,248,7.4,8.3,52,0.00,,,0.00,WUHU216HW,2013-03-20 01:20:00,
2013-03-19 18:25:00,59.2,42.0,30.07,WSW,248,2.9,9.4,53,0.00,,,0.00,WUHU216HW,2013-03-20 01:25:00,
2013-03-19 18:30:00,59.0,41.4,30.08,West,270,7.6,9.4,52,0.00,,,0.00,WUHU216HW,2013-03-20 01:30:00,
2013-03-19 18:35:00,58.9,40.8,30.08,West,270,8.7,9.2,51,0.00,,,0.00,WUHU216HW,2013-03-20 01:35:00,
2013-03-19 18:40:00,58.7,40.1,30.09,WSW,248,4.3,9.2,50,0.00,,,0.00,WUHU216HW,2013-03-20 01:40:00,
2013-03-19 18:45:00,58.3,40.3,30.09,WSW,248,3.1,8.1,51,0.00,,,0.00,WUHU216HW,2013-03-20 01:45:00,
2013-03-19 18:50:00,58.0,39.0,30.09,SSW,203,8.5,11.6,49,0.00,,,0.00,WUHU216HW,2013-03-20 01:50:00,
2013-03-19 18:55:00,57.6,38.6,30.09,NW,315,2.7,11.6,49,0.00,,,0.00,WUHU216HW,2013-03-20 01:55:00,
2013-03-19 19:00:00,56.9,36.8,30.10,West,270,6.9,15.0,47,0.00,,,0.00,WUHU216HW,2013-03-20 02:00:00,
2013-03-19 19:05:00,56.3,37.5,30.09,West,270,6.0,15.0,49,0.00,,,0.00,WUHU216HW,2013-03-20 02:05:00,
2013-03-19 19:10:00,55.8,37.4,30.10,WSW,248,2.0,6.7,50,0.00,,,0.00,WUHU216HW,2013-03-20 02:10:00,
2013-03-19 19:15:00,55.4,37.5,30.10,SW,225,4.7,4.7,51,0.00,,,0.00,WUHU216HW,2013-03-20 02:15:00,
2013-03-19 19:20:00,54.7,37.8,30.10,West,270,2.5,11.2,53,0.00,,,0.00,WUHU216HW,2013-03-20 02:20:00,
2013-03-19 19:25:00,53.8,38.0,30.10,WNW,293,0.7,11.2,55,0.00,,,0.00,WUHU216HW,2013-03-20 02:25:00,
2013-03-19 19:30:00,53.5,39.1,30.10,NNE,23,2.5,4.3,58,0.00,,,0.00,WUHU216HW,2013-03-20 02:30:00,
2013-03-19 19:36:00,52.9,39.4,30.10,NE,45,2.0,3.4,60,0.00,,,0.00,WUHU216HW,2013-03-20 02:36:00,
2013-03-19 19:41:00,52.6,40.7,30.10,North,0,2.5,4.7,64,0.00,,,0.00,WUHU216HW,2013-03-20 02:41:00,
2013-03-19 19:46:00,52.0,39.8,30.10,NW,315,0.4,4.7,63,0.00,,,0.00,WUHU216HW,2013-03-20 02:46:00,
2013-03-19 19:51:00,51.8,41.2,30.10,West,270,1.8,4.5,67,0.02,,,0.02,WUHU216HW,2013-03-20 02:51:00,
2013-03-19 19:56:00,51.5,41.3,30.10,SE,135,0.4,4.5,68,0.02,,,0.02,WUHU216HW,2013-03-20 02:56:00,
2013-03-19 20:01:00,51.1,41.0,30.09,NE,45,0.4,1.1,68,0.02,,,0.02,WUHU216HW,2013-03-20 03:01:00,
2013-03-19 20:06:00,51.1,41.0,30.09,NNE,23,0.4,0.9,68,0.02,,,0.02,WUHU216HW,2013-03-20 03:06:00,
2013-03-19 20:11:00,50.9,41.6,30.10,NE,45,1.3,1.8,70,0.05,,,0.05,WUHU216HW,2013-03-20 03:11:00,
2013-03-19 20:17:00,50.8,41.8,30.10,NNE,23,0.4,1.8,71,0.05,,,0.05,WUHU216HW,2013-03-20 03:17:00,
2013-03-19 20:22:00,50.4,41.8,30.10,NNE,23,1.1,1.3,72,0.05,,,0.05,WUHU216HW,2013-03-20 03:22:00,
2013-03-19 20:27:00,50.2,41.2,30.09,WNW,293,0.4,1.1,71,0.05,,,0.05,WUHU216HW,2013-03-20 03:27:00,
2013-03-19 20:32:00,50.0,41.4,30.09,West,270,0.2,0.9,72,0.05,,,0.05,WUHU216HW,2013-03-20 03:32:00,
2013-03-19 20:37:00,50.0,42.0,30.10,North,0,0.4,0.9,74,0.05,,,0.05,WUHU216HW,2013-03-20 03:37:00,
2013-03-19 20:42:00,49.9,41.5,30.10,North,0,0.0,0.4,73,0.05,,,0.05,WUHU216HW,2013-03-20 03:42:00,
2013-03-19 20:47:00,49.7,41.7,30.09,North,0,0.2,0.4,74,0.05,,,0.05,WUHU216HW,2013-03-20 03:47:00,
2013-03-19 20:52:00,49.7,41.3,30.09,NW,315,0.0,0.4,73,0.03,,,0.05,WUHU216HW,2013-03-20 03:52:00,
2013-03-19 20:57:00,49.5,41.5,30.09,West,270,0.9,0.9,74,0.03,,,0.05,WUHU216HW,2013-03-20 03:57:00,
2013-03-19 21:00:00,49.5,41.5,30.08,WNW,293,0.0,0.9,74,0.05,,,0.07,WUHU216HW,2013-03-20 04:00:00,
2013-03-19 21:05:00,49.3,41.3,30.08,WNW,293,0.0,0.9,74,0.05,,,0.07,WUHU216HW,2013-03-20 04:05:00,
2013-03-19 21:11:00,49.3,41.7,30.08,WNW,293,0.0,0.2,75,0.02,,,0.07,WUHU216HW,2013-03-20 04:11:00,
2013-03-19 21:16:00,49.3,41.7,30.08,NW,315,1.1,1.3,75,0.02,,,0.07,WUHU216HW,2013-03-20 04:16:00,
2013-03-19 21:21:00,49.1,42.2,30.08,West,270,0.4,1.3,77,0.02,,,0.07,WUHU216HW,2013-03-20 04:21:00,
2013-03-19 21:26:00,49.1,42.5,30.08,WNW,293,0.2,0.7,78,0.02,,,0.07,WUHU216HW,2013-03-20 04:26:00,
2013-03-19 21:31:00,49.0,42.3,30.08,WNW,293,0.0,0.7,78,0.02,,,0.07,WUHU216HW,2013-03-20 04:31:00,
2013-03-19 21:36:00,49.0,42.3,30.07,North,0,1.3,2.0,78,0.02,,,0.07,WUHU216HW,2013-03-20 04:36:00,
2013-03-19 21:41:00,49.0,42.3,30.05,WNW,293,1.1,2.0,78,0.02,,,0.07,WUHU216HW,2013-03-20 04:41:00,
2013-03-19 21:46:00,49.1,43.8,30.07,WSW,248,0.9,1.8,82,0.02,,,0.07,WUHU216HW,2013-03-20 04:46:00,
2013-03-19 21:51:00,49.1,43.5,30.07,SSW,203,1.6,2.2,81,0.02,,,0.07,WUHU216HW,2013-03-20 04:51:00,
2013-03-19 21:57:00,49.0,43.4,30.07,WSW,248,0.7,2.2,81,0.00,,,0.07,WUHU216HW,2013-03-20 04:57:00,
2013-03-19 22:02:00,49.0,43.4,30.07,South,180,0.2,0.9,81,0.00,,,0.07,WUHU216HW,2013-03-20 05:02:00,
2013-03-19 22:07:00,49.0,43.4,30.07,South,180,0.0,0.4,81,0.00,,,0.07,WUHU216HW,2013-03-20 05:07:00,
2013-03-19 22:12:00,49.0,43.0,30.07,ESE,113,0.4,0.7,80,0.00,,,0.07,WUHU216HW,2013-03-20 05:12:00,
2013-03-19 22:17:00,49.0,43.4,30.07,SSW,203,0.0,0.7,81,0.00,,,0.07,WUHU216HW,2013-03-20 05:17:00,
2013-03-19 22:22:00,49.0,43.0,30.07,SSW,203,0.0,0.4,80,0.00,,,0.07,WUHU216HW,2013-03-20 05:22:00,
2013-03-19 22:27:00,49.0,43.0,30.07,North,0,0.7,0.7,80,0.00,,,0.07,WUHU216HW,2013-03-20 05:27:00,
2013-03-19 22:32:00,49.1,43.5,30.07,NE,45,0.0,1.1,81,0.00,,,0.07,WUHU216HW,2013-03-20 05:32:00,
2013-03-19 22:37:00,49.1,43.2,30.07,NE,45,0.0,1.1,80,0.00,,,0.07,WUHU216HW,2013-03-20 05:37:00,
2013-03-19 22:42:00,49.1,43.2,30.07,SW,225,0.7,0.7,80,0.00,,,0.07,WUHU216HW,2013-03-20 05:42:00,
2013-03-19 22:47:00,49.1,43.8,30.08,SSW,203,0.0,0.7,82,0.00,,,0.07,WUHU216HW,2013-03-20 05:47:00,
2013-03-19 22:52:00,49.3,44.0,30.08,SW,225,0.2,0.7,82,0.00,,,0.07,WUHU216HW,2013-03-20 05:52:00,
2013-03-19 22:58:00,49.3,44.3,30.08,South,180,0.4,0.9,83,0.00,,,0.07,WUHU216HW,2013-03-20 05:58:00,
2013-03-19 23:03:00,49.3,44.7,30.08,SW,225,0.4,1.1,84,0.00,,,0.07,WUHU216HW,2013-03-20 06:03:00,
2013-03-19 23:08:00,49.3,44.3,30.08,WNW,293,0.2,1.1,83,0.00,,,0.07,WUHU216HW,2013-03-20 06:08:00,
2013-03-19 23:13:00,49.3,44.0,30.08,SW,225,0.4,0.4,82,0.00,,,0.07,WUHU216HW,2013-03-20 06:13:00,
2013-03-19 23:18:00,49.3,44.3,30.07,SW,225,0.4,0.9,83,0.00,,,0.07,WUHU216HW,2013-03-20 06:18:00,
2013-03-19 23:23:00,49.3,44.3,30.07,SSW,203,0.0,0.9,83,0.00,,,0.07,WUHU216HW,2013-03-20 06:23:00,
2013-03-19 23:28:00,49.3,44.0,30.07,SSE,158,0.7,0.7,82,0.00,,,0.07,WUHU216HW,2013-03-20 06:28:00,
2013-03-19 23:33:00,49.3,44.0,30.07,SE,135,0.2,0.9,82,0.00,,,0.07,WUHU216HW,2013-03-20 06:33:00,
2013-03-19 23:38:00,49.3,44.0,30.07,SSE,158,0.7,0.9,82,0.00,,,0.07,WUHU216HW,2013-03-20 06:38:00,
2013-03-19 23:43:00,49.3,44.0,30.07,SSW,203,0.0,0.9,82,0.00,,,0.07,WUHU216HW,2013-03-20 06:43:00,
2013-03-19 23:48:00,49.3,44.0,30.07,SSW,203,0.0,0.9,82,0.00,,,0.07,WUHU216HW,2013-03-20 06:48:00,
2013-03-19 23:53:00,49.3,44.0,30.07,SSW,203,0.0,0.0,82,0.00,,,0.07,WUHU216HW,2013-03-20 06:53:00,
2013-03-19 23:58:00,49.3,44.0,30.07,ESE,113,0.4,0.4,82,0.00,,,0.07,WUHU216HW,2013-03-20 06:58:00,